M I D A S
Marine Information and Data Acquisition System
Tripno 382 of the Zeeleeuw from 2002-08-01 07:53:26 to 2002-08-01 14:23:53
Back to CruiseResearch ActivitiesStationsMapUnderway DataData graphs

EquipmentUnitsComment
TimeDGPSUTC
LatitudeDGPSDM.mWGS84
LongitudeDGPSDM.mWGS84
HeadingGyrodeg 
SOGDGPSknotsSpeed over ground
COGDGPSdegCourse over ground
DepthEcho soundermeters200 kHz
Missing or incorrect values are displayed as -999
Navigation data collected by the RV Zeeleeuw from 2002-08-01 07:53:26 to 2002-08-01 14:23:53
                                                                                    Next 1000 lines
Time Latitude Longitude Heading SOG COG Depth
2002-08-01 07:53:32 51°13.663 2°55.955 111.3 0.1 193.7 9
2002-08-01 07:53:38 51°13.663 2°55.955 110.3 0.1 234.8 9.1
2002-08-01 07:53:43 51°13.663 2°55.954 109.5 0.2 274.5 9
2002-08-01 07:53:48 51°13.663 2°55.953 108.5 0.4 284 9
2002-08-01 07:53:52 51°13.663 2°55.952 107.7 0.6 287.5 9
2002-08-01 07:53:58 51°13.663 2°55.95 106.7 0.8 289.1 9
2002-08-01 07:54:03 51°13.663 2°55.948 105.8 0.9 288.9 9
2002-08-01 07:54:08 51°13.664 2°55.946 105.3 1.2 287.9 8.9
2002-08-01 07:54:14 51°13.665 2°55.942 105 1.4 287 8.9
2002-08-01 07:54:19 51°13.666 2°55.938 104.5 1.6 287.3 -999
2002-08-01 07:54:25 51°13.667 2°55.933 104.2 1.9 286.7 -999
2002-08-01 07:54:29 51°13.668 2°55.929 103.5 2 286.1 -999
2002-08-01 07:54:34 51°13.668 2°55.925 102.8 2.1 285.1 -999
2002-08-01 07:54:39 51°13.669 2°55.92 102.2 2.2 283.7 -999
2002-08-01 07:54:44 51°13.67 2°55.915 101.5 2.3 282.3 -999
2002-08-01 07:54:49 51°13.671 2°55.909 101 2.4 281.5 -999
2002-08-01 07:54:55 51°13.671 2°55.903 100.5 2.5 281.2 -999
2002-08-01 07:54:59 51°13.672 2°55.898 99.8 2.5 280.2 -999
2002-08-01 07:55:04 51°13.672 2°55.893 99.3 2.6 279.6 -999
2002-08-01 07:55:09 51°13.673 2°55.887 98.7 2.6 279.1 -999
2002-08-01 07:55:14 51°13.673 2°55.881 98 2.6 278.7 -999
2002-08-01 07:55:19 51°13.674 2°55.875 97.5 2.6 278.5 -999
2002-08-01 07:55:24 51°13.674 2°55.869 96.8 2.7 277.6 -999
2002-08-01 07:55:29 51°13.675 2°55.863 96.3 2.7 277.4 -999
2002-08-01 07:55:35 51°13.675 2°55.856 95.8 2.8 276.8 -999
2002-08-01 07:55:39 51°13.676 2°55.851 95.3 2.8 276.5 -999
2002-08-01 07:55:44 51°13.676 2°55.844 94.8 2.9 276.2 -999
2002-08-01 07:55:49 51°13.677 2°55.838 94.3 2.9 275.9 -999
2002-08-01 07:55:55 51°13.677 2°55.83 93.8 2.9 275.5 -999
2002-08-01 07:55:59 51°13.678 2°55.825 93.3 3 275.4 -999
2002-08-01 07:56:04 51°13.678 2°55.818 92.8 3 275.3 -999
2002-08-01 07:56:09 51°13.678 2°55.812 92.3 3 274.8 -999
2002-08-01 07:56:15 51°13.679 2°55.804 92 3 274.7 -999
2002-08-01 07:56:19 51°13.679 2°55.799 91.5 2.9 274.3 -999
2002-08-01 07:56:24 51°13.68 2°55.793 90.7 2.8 274.1 -999
2002-08-01 07:56:29 51°13.68 2°55.787 89.8 2.7 273.5 -999
2002-08-01 07:56:35 51°13.68 2°55.779 89 2.7 273.4 -999
2002-08-01 07:56:39 51°13.68 2°55.775 88 2.6 272.5 12.3
2002-08-01 07:56:44 51°13.68 2°55.769 87 2.5 271.3 12.3
2002-08-01 07:56:48 51°13.68 2°55.765 86.2 2.5 270.4 12.2
2002-08-01 07:56:53 51°13.68 2°55.76 85 2.4 269.3 12.3
2002-08-01 07:56:59 51°13.68 2°55.754 83.7 2.2 268.6 12.2
2002-08-01 07:57:03 51°13.68 2°55.751 82 1.9 269 12.4
2002-08-01 07:57:08 51°13.68 2°55.748 79 1.5 268.2 12.9
2002-08-01 07:57:13 51°13.68 2°55.745 76 1.3 268.9 13.6
2002-08-01 07:57:18 51°13.68 2°55.743 73.2 1.2 267.1 13.9
2002-08-01 07:57:23 51°13.68 2°55.741 70.7 1.1 266.9 14.1
2002-08-01 07:57:28 51°13.679 2°55.739 68.3 0.9 267.8 14.1
2002-08-01 07:57:33 51°13.679 2°55.738 65.8 0.8 271.2 14.2
2002-08-01 07:57:39 51°13.679 2°55.737 63.3 0.6 276.9 14.2
2002-08-01 07:57:44 51°13.68 2°55.736 60.5 0.4 286.5 14.4
2002-08-01 07:57:48 51°13.681 2°55.735 57.2 0.3 316.8 14.6
2002-08-01 07:57:53 51°13.682 2°55.734 53.2 0.4 350.5 14.5
2002-08-01 07:57:58 51°13.683 2°55.735 49.2 0.5 7.9 14.4
2002-08-01 07:58:03 51°13.683 2°55.735 45 0.6 14.5 14.4
2002-08-01 07:58:08 51°13.684 2°55.736 40.8 0.7 16.4 14.3
2002-08-01 07:58:13 51°13.685 2°55.736 36.7 0.7 15.8 14.4
2002-08-01 07:58:18 51°13.686 2°55.737 32.8 0.9 13.4 14.4
2002-08-01 07:58:24 51°13.687 2°55.738 28.8 1 13 14.3
2002-08-01 07:58:28 51°13.689 2°55.738 24 1.2 10.7 14.1
2002-08-01 07:58:32 51°13.69 2°55.739 19 1.5 9.7 13
2002-08-01 07:58:38 51°13.693 2°55.739 12.8 1.7 3.9 13.2
2002-08-01 07:58:44 51°13.696 2°55.739 7.5 1.9 359.4 13.4
2002-08-01 07:58:48 51°13.698 2°55.738 2.2 2 355.3 14.4
2002-08-01 07:58:53 51°13.702 2°55.737 355.8 2.2 352.1 13.9
2002-08-01 07:58:58 51°13.705 2°55.736 349.2 2.6 346 13.4
2002-08-01 07:59:04 51°13.71 2°55.733 344 2.9 342.5 13
2002-08-01 07:59:08 51°13.714 2°55.73 339.8 3.4 337.7 12.5
2002-08-01 07:59:12 51°13.718 2°55.727 337.5 3.8 335.4 11.6
2002-08-01 07:59:18 51°13.725 2°55.722 336.5 4.2 333.3 11.4
2002-08-01 07:59:24 51°13.731 2°55.716 336.3 4.5 332.5 11
2002-08-01 07:59:28 51°13.737 2°55.712 336 4.9 332.8 10.9
2002-08-01 07:59:33 51°13.743 2°55.707 335.2 5.2 332.3 10.8
2002-08-01 07:59:38 51°13.75 2°55.701 335 5.4 331.9 11
2002-08-01 07:59:43 51°13.757 2°55.695 334.8 5.7 331.8 10.9
2002-08-01 07:59:48 51°13.764 2°55.689 334.2 5.9 331.9 11
2002-08-01 07:59:54 51°13.773 2°55.681 333.8 6.1 331.7 10.7
2002-08-01 07:59:58 51°13.779 2°55.676 333.8 6.3 332.5 10.7
2002-08-01 08:00:03 51°13.787 2°55.669 333.5 6.4 332.1 11.5
2002-08-01 08:00:08 51°13.796 2°55.663 333.7 6.6 332.2 11.3
2002-08-01 08:00:14 51°13.806 2°55.654 334 6.8 332 11.3
2002-08-01 08:00:19 51°13.814 2°55.646 334.8 7 332.4 11.3
2002-08-01 08:00:24 51°13.823 2°55.639 335.5 7.1 333.1 11.4
2002-08-01 08:00:28 51°13.83 2°55.633 336 7.3 333.4 11.3
2002-08-01 08:00:34 51°13.842 2°55.625 336.5 7.4 334.2 11.2
2002-08-01 08:00:39 51°13.851 2°55.617 336.5 7.5 333.9 11.2
2002-08-01 08:00:44 51°13.861 2°55.61 337.3 7.6 334.3 10.7
2002-08-01 08:00:48 51°13.868 2°55.605 337.5 7.6 334.9 10.8
2002-08-01 08:00:53 51°13.878 2°55.597 337.7 7.8 334.7 11.1
2002-08-01 08:00:58 51°13.888 2°55.59 338 7.8 335.1 11.4
2002-08-01 08:01:03 51°13.898 2°55.583 337.3 7.9 334.9 11.2
2002-08-01 08:01:08 51°13.908 2°55.575 337 7.9 334.9 11.6
2002-08-01 08:01:12 51°13.915 2°55.569 337.5 8 334.7 11.3
2002-08-01 08:01:19 51°13.929 2°55.559 338.5 8 335.4 11.7
2002-08-01 08:01:24 51°13.939 2°55.551 338.5 8 335.6 11.3
2002-08-01 08:01:28 51°13.947 2°55.546 337.8 8 335.4 11.3
2002-08-01 08:01:33 51°13.957 2°55.538 338.2 8.1 335.1 11.2
2002-08-01 08:01:39 51°13.97 2°55.529 338.5 8.1 335.6 11.2
2002-08-01 08:01:44 51°13.98 2°55.521 338 8.1 335.2 11.2
2002-08-01 08:01:48 51°13.989 2°55.515 338.2 8.1 335.2 11.1
2002-08-01 08:01:54 51°14.001 2°55.506 337.7 8.1 334.6 11.4
2002-08-01 08:01:59 51°14.011 2°55.498 337.2 8.2 334.3 11.4
2002-08-01 08:02:03 51°14.019 2°55.492 337.3 8.2 334.1 11.5
2002-08-01 08:02:08 51°14.029 2°55.484 337.7 8.2 334.3 11.9
2002-08-01 08:02:13 51°14.039 2°55.476 337.7 8.2 334.6 11.5
2002-08-01 08:02:18 51°14.05 2°55.469 338 8.2 334.7 11.5
2002-08-01 08:02:24 51°14.062 2°55.46 338.5 8.2 335.3 11.2
2002-08-01 08:02:28 51°14.07 2°55.454 338.2 8.2 335.4 11.2
2002-08-01 08:02:33 51°14.08 2°55.446 337.7 8.2 335 11.3
2002-08-01 08:02:38 51°14.09 2°55.438 338 8.2 334.9 11.2
2002-08-01 08:02:43 51°14.101 2°55.431 338.5 8.2 335.4 11.3
2002-08-01 08:02:48 51°14.111 2°55.423 338.2 8.2 335.4 11.1
2002-08-01 08:02:54 51°14.123 2°55.414 337.8 8.2 334.9 11.2
2002-08-01 08:02:58 51°14.131 2°55.407 337.2 8.2 334.4 11
2002-08-01 08:03:04 51°14.144 2°55.398 335.8 8.2 333.7 11.5
2002-08-01 08:03:08 51°14.153 2°55.391 334.5 8.2 332.2 11.2
2002-08-01 08:03:12 51°14.16 2°55.383 333 8.3 330.8 11.3
2002-08-01 08:03:18 51°14.172 2°55.372 331.8 8.3 329.5 11.6
2002-08-01 08:03:24 51°14.184 2°55.361 330.5 8.3 328.6 11.5
2002-08-01 08:03:28 51°14.192 2°55.352 328.7 8.3 326.5 11.5
2002-08-01 08:03:34 51°14.203 2°55.339 327 8.3 325.2 11.4
2002-08-01 08:03:38 51°14.21 2°55.33 325.7 8.3 323.5 11.6
2002-08-01 08:03:43 51°14.219 2°55.319 324.8 8.3 322.3 11.7
2002-08-01 08:03:48 51°14.228 2°55.307 323.7 8.3 321.1 11.5
2002-08-01 08:03:54 51°14.239 2°55.293 322.5 8.3 320.2 11.5
2002-08-01 08:03:57 51°14.244 2°55.286 321.2 8.3 318.7 11.4
2002-08-01 08:04:04 51°14.256 2°55.268 319.8 8.4 317.5 11.4
2002-08-01 08:04:08 51°14.262 2°55.257 318.2 8.4 315.8 11.4
2002-08-01 08:04:14 51°14.272 2°55.241 316.3 8.4 314 11.3
2002-08-01 08:04:18 51°14.278 2°55.23 315 8.4 312.6 11.2
2002-08-01 08:04:24 51°14.287 2°55.213 314 8.4 311.8 11.3
2002-08-01 08:04:28 51°14.293 2°55.201 313.3 8.6 310.6 11.3
2002-08-01 08:04:34 51°14.303 2°55.183 312.5 8.7 310 11.3
2002-08-01 08:04:39 51°14.31 2°55.167 311.3 9 309.1 11.3
2002-08-01 08:04:44 51°14.318 2°55.151 310.7 9.3 308 11.3
2002-08-01 08:04:48 51°14.325 2°55.137 311.3 9.5 308.4 11.3
2002-08-01 08:04:53 51°14.333 2°55.121 311.3 9.6 308.4 11
2002-08-01 08:04:58 51°14.341 2°55.103 310.7 9.7 307.8 10.9
2002-08-01 08:05:04 51°14.351 2°55.082 310.2 9.8 307.3 11.4
2002-08-01 08:05:08 51°14.358 2°55.068 309.7 9.9 307.1 11.4
2002-08-01 08:05:14 51°14.368 2°55.047 311.5 10 308 11.1
2002-08-01 08:05:19 51°14.377 2°55.031 315 10.1 310.2 11.1
2002-08-01 08:05:24 51°14.388 2°55.015 318 10.1 313.8 10.9
2002-08-01 08:05:28 51°14.395 2°55.002 319.5 10.1 315 10.9
2002-08-01 08:05:34 51°14.408 2°54.984 321.3 10.2 316.5 10.9
2002-08-01 08:05:38 51°14.416 2°54.972 322.7 10.2 318.1 10.8
2002-08-01 08:05:44 51°14.429 2°54.954 323 10.2 318.6 10.9
2002-08-01 08:05:48 51°14.438 2°54.942 323 10.2 318.9 10.7
2002-08-01 08:05:54 51°14.45 2°54.924 323.2 10.3 318.9 10.7
2002-08-01 08:05:59 51°14.461 2°54.909 322.8 10.3 318.9 10.7
2002-08-01 08:06:04 51°14.472 2°54.894 322.8 10.3 318.8 10.7
2002-08-01 08:06:08 51°14.481 2°54.882 323.5 10.3 319.1 10.7
2002-08-01 08:06:14 51°14.494 2°54.864 323.7 10.3 319.7 10.7
2002-08-01 08:06:18 51°14.503 2°54.852 324.2 10.3 319.9 10.6
2002-08-01 08:06:23 51°14.514 2°54.839 326.2 10.3 321.1 10.6
2002-08-01 08:06:28 51°14.526 2°54.825 327 10.3 322.4 10.6
2002-08-01 08:06:34 51°14.539 2°54.809 327.3 10.3 323 10.5
2002-08-01 08:06:38 51°14.548 2°54.798 327.5 10.3 323.5 10.5
2002-08-01 08:06:43 51°14.56 2°54.784 327.3 10.3 323.3 10.5
2002-08-01 08:06:48 51°14.571 2°54.771 326.8 10.3 323.3 10.4
2002-08-01 08:06:53 51°14.582 2°54.757 327.2 10.3 323.5 10.4
2002-08-01 08:06:58 51°14.594 2°54.743 328.3 10.3 324.1 10.4
2002-08-01 08:07:03 51°14.606 2°54.731 329.8 10.3 325.1 10.4
2002-08-01 08:07:08 51°14.618 2°54.718 330.7 10.3 326.4 10.4
2002-08-01 08:07:13 51°14.63 2°54.706 330.7 10.3 326.8 10.4
2002-08-01 08:07:18 51°14.642 2°54.693 330.2 10.2 326.8 10.4
2002-08-01 08:07:24 51°14.656 2°54.679 330 10 326.5 10.4
2002-08-01 08:07:28 51°14.665 2°54.669 330 9.8 326.6 10.4
2002-08-01 08:07:33 51°14.676 2°54.658 330.3 9.6 326.7 10.5
2002-08-01 08:07:39 51°14.689 2°54.645 330.7 9.3 327.1 10.5
2002-08-01 08:07:43 51°14.697 2°54.636 331 9.2 327.5 10.7
2002-08-01 08:07:48 51°14.708 2°54.626 331 9 327.6 10.6
2002-08-01 08:07:54 51°14.72 2°54.613 330.8 8.9 327.6 10.6
2002-08-01 08:07:58 51°14.728 2°54.605 330.7 8.8 327.5 10.6
2002-08-01 08:08:04 51°14.741 2°54.592 330.3 8.6 327.6 10.6
2002-08-01 08:08:08 51°14.749 2°54.584 330.2 8.6 327.7 10.5
2002-08-01 08:08:14 51°14.761 2°54.573 331.3 8.5 328.5 10.5
2002-08-01 08:08:19 51°14.771 2°54.564 334 8.4 330.5 10.5
2002-08-01 08:08:24 51°14.781 2°54.556 337.5 8.3 334 10.5
2002-08-01 08:08:28 51°14.79 2°54.551 340.8 8.2 336.7 10.5
2002-08-01 08:08:33 51°14.801 2°54.545 342.3 8.2 338.4 10.5
2002-08-01 08:08:38 51°14.811 2°54.539 343 8.1 339.6 10.4
2002-08-01 08:08:43 51°14.822 2°54.532 343.7 8.1 340.2 10.4
2002-08-01 08:08:48 51°14.833 2°54.527 344.2 8.2 341 10.3
2002-08-01 08:08:54 51°14.846 2°54.52 344.5 8.4 341.8 10.4
2002-08-01 08:08:58 51°14.856 2°54.515 345.5 8.8 342.8 10.3
2002-08-01 08:09:04 51°14.871 2°54.509 348 9.1 344.4 10.3
2002-08-01 08:09:08 51°14.882 2°54.506 351 9.7 347.5 10.1
2002-08-01 08:09:13 51°14.896 2°54.502 354.2 10 350.5 10.1
2002-08-01 08:09:18 51°14.91 2°54.5 357.7 10.4 353.9 9.9
2002-08-01 08:09:24 51°14.928 2°54.5 1 10.7 358.1 9.8
2002-08-01 08:09:28 51°14.941 2°54.501 5.2 10.9 0.9 9.7
2002-08-01 08:09:33 51°14.956 2°54.503 7.8 11.2 3.7 9.5
2002-08-01 08:09:38 51°14.973 2°54.506 9 11.6 5.9 9.5
2002-08-01 08:09:43 51°14.989 2°54.509 9.7 12 6.7 9.4
2002-08-01 08:09:48 51°15.006 2°54.514 12.8 12.3 8.9 9.3
2002-08-01 08:09:54 51°15.026 2°54.521 16 12.5 12.2 9
2002-08-01 08:09:58 51°15.04 2°54.527 17.5 12.6 14 9.2
2002-08-01 08:10:04 51°15.06 2°54.535 18.7 12.8 14.8 9.1
2002-08-01 08:10:08 51°15.074 2°54.542 19.8 12.9 16.3 9.1
2002-08-01 08:10:13 51°15.092 2°54.551 21 13.1 17.5 9
2002-08-01 08:10:18 51°15.109 2°54.561 22 13.3 18.8 9.1
2002-08-01 08:10:24 51°15.13 2°54.574 24.7 13.4 21.1 9.1
2002-08-01 08:10:28 51°15.143 2°54.585 28.2 13.5 24.1 9.1
2002-08-01 08:10:34 51°15.163 2°54.603 32 13.5 27.8 9.1
2002-08-01 08:10:38 51°15.176 2°54.615 35.5 13.5 31.2 9.1
2002-08-01 08:10:43 51°15.191 2°54.633 38.5 13.6 34.7 9.1
2002-08-01 08:10:48 51°15.206 2°54.652 41.3 13.6 37.5 9.1
2002-08-01 08:10:53 51°15.22 2°54.672 44.2 13.7 40.2 9.2
2002-08-01 08:10:58 51°15.234 2°54.691 44.5 13.7 41.2 9.2
2002-08-01 08:11:04 51°15.252 2°54.716 45.2 13.8 41.8 9.2
2002-08-01 08:11:08 51°15.263 2°54.732 44.8 13.8 41.5 9.2
2002-08-01 08:11:14 51°15.28 2°54.756 44.8 13.8 41.4 9.2
2002-08-01 08:11:18 51°15.292 2°54.771 43.5 13.8 40.5 9.2
2002-08-01 08:11:24 51°15.31 2°54.795 43.2 13.8 40.2 9.2
2002-08-01 08:11:28 51°15.322 2°54.81 42.2 13.9 39.1 9.2
2002-08-01 08:11:33 51°15.337 2°54.83 42.2 13.9 39.3 9.2
2002-08-01 08:11:39 51°15.355 2°54.853 42.2 13.9 39.2 9.3
2002-08-01 08:11:43 51°15.366 2°54.869 43.7 13.9 40.2 9.3
2002-08-01 08:11:48 51°15.382 2°54.889 43.2 14 40.3 9.2
2002-08-01 08:11:54 51°15.399 2°54.914 44 13.9 40.7 9.3
2002-08-01 08:11:58 51°15.411 2°54.93 44.8 14 41.5 9.3
2002-08-01 08:12:04 51°15.428 2°54.955 45.5 14 42 9.3
2002-08-01 08:12:08 51°15.44 2°54.972 47 14 43.7 9.3
2002-08-01 08:12:14 51°15.456 2°54.998 47.7 14 44.5 9.4
2002-08-01 08:12:19 51°15.469 2°55.021 49.2 14 45.8 9.4
2002-08-01 08:12:24 51°15.483 2°55.043 48.8 14 45.8 9.3
2002-08-01 08:12:28 51°15.494 2°55.061 49.5 14.1 46.3 9.4
2002-08-01 08:12:33 51°15.507 2°55.084 49 14 46.2 9.3
2002-08-01 08:12:38 51°15.521 2°55.106 49.7 14 46.5 9.4
2002-08-01 08:12:44 51°15.537 2°55.133 50 14 46.6 9.4
2002-08-01 08:12:49 51°15.55 2°55.157 51.3 14.1 48 9.4
2002-08-01 08:12:53 51°15.56 2°55.175 51.5 14.1 48.4 9.4
2002-08-01 08:13:00 51°15.578 2°55.208 52.5 14.1 49.1 9.5
2002-08-01 08:13:05 51°15.591 2°55.232 52.8 14 49.6 9.4
2002-08-01 08:13:09 51°15.6 2°55.251 53 14 50 9.5
2002-08-01 08:13:13 51°15.61 2°55.269 52.7 14 49.9 9.5
2002-08-01 08:13:19 51°15.625 2°55.298 52.5 14 49.6 9.5
2002-08-01 08:13:24 51°15.638 2°55.321 52.2 14.1 49 9.5
2002-08-01 08:13:29 51°15.651 2°55.344 51.7 14.1 48.5 9.5
2002-08-01 08:13:35 51°15.666 2°55.372 51.8 14 48.6 9.5
2002-08-01 08:13:39 51°15.677 2°55.391 51.2 14 48.3 9.3
2002-08-01 08:13:44 51°15.69 2°55.414 51.7 14 48.3 9.8
2002-08-01 08:13:49 51°15.702 2°55.437 52 14 48.7 9.5
2002-08-01 08:13:55 51°15.718 2°55.465 52 14.1 48.7 9.5
2002-08-01 08:13:59 51°15.728 2°55.484 52.3 14.1 49.1 9.5
2002-08-01 08:14:05 51°15.742 2°55.512 53.2 14.1 49.7 9.5
2002-08-01 08:14:09 51°15.752 2°55.532 53.5 14 50.3 9.5
2002-08-01 08:14:15 51°15.766 2°55.561 54.3 14 51.1 9.6
2002-08-01 08:14:19 51°15.776 2°55.58 54.8 14 51.8 9.6
2002-08-01 08:14:24 51°15.788 2°55.605 55.8 14 52.4 9.6
2002-08-01 08:14:29 51°15.8 2°55.63 55.7 14.1 52.5 9.5
2002-08-01 08:14:35 51°15.814 2°55.659 55.5 14.1 52.3 9.6
2002-08-01 08:14:40 51°15.826 2°55.684 54.8 14.1 51.8 9.6
2002-08-01 08:14:44 51°15.836 2°55.703 54 14.1 51.3 9.6
2002-08-01 08:14:49 51°15.849 2°55.727 54.2 14.1 50.9 9.5
2002-08-01 08:14:54 51°15.861 2°55.752 54.2 14.1 50.9 9.6
2002-08-01 08:14:59 51°15.873 2°55.775 53.5 14 50.5 9.6
2002-08-01 08:15:05 51°15.888 2°55.804 53.7 14 50.6 9.6
2002-08-01 08:15:09 51°15.898 2°55.824 53.8 14 50.7 9.6
2002-08-01 08:15:15 51°15.913 2°55.852 53.8 14 50.8 9.6
2002-08-01 08:15:19 51°15.922 2°55.872 54.3 14 51.3 9.6
2002-08-01 08:15:24 51°15.935 2°55.896 54.5 14 51.4 9.7
2002-08-01 08:15:29 51°15.947 2°55.92 54.3 14 51.3 9.7
2002-08-01 08:15:35 51°15.962 2°55.949 54.2 14 51.2 9.7
2002-08-01 08:15:39 51°15.971 2°55.969 54.5 14 51.4 9.7
2002-08-01 08:15:45 51°15.985 2°55.998 54.8 14 51.8 9.7
2002-08-01 08:15:49 51°15.995 2°56.018 55.7 14 52.5 9.8
2002-08-01 08:15:54 51°16.007 2°56.043 56.3 14.1 53 9.7
2002-08-01 08:15:59 51°16.018 2°56.068 57.3 14 54.1 9.8
2002-08-01 08:16:04 51°16.029 2°56.094 57.8 14 54.4 9.7
2002-08-01 08:16:09 51°16.04 2°56.119 59 14 55.5 9.7
2002-08-01 08:16:15 51°16.053 2°56.15 58.7 14 55.4 9.8
2002-08-01 08:16:20 51°16.065 2°56.176 59 14.1 55.6 9.8
2002-08-01 08:16:25 51°16.075 2°56.201 59.3 14 56 9.8
2002-08-01 08:16:29 51°16.085 2°56.222 59 14 55.9 9.8
2002-08-01 08:16:35 51°16.098 2°56.253 59.2 14 55.8 9.8
2002-08-01 08:16:39 51°16.108 2°56.273 58.8 14 55.6 9.8
2002-08-01 08:16:45 51°16.12 2°56.304 58.8 14 55.6 9.9
2002-08-01 08:16:49 51°16.129 2°56.324 58 14 54.9 9.8
2002-08-01 08:16:55 51°16.141 2°56.354 58.8 14 55.2 9.8
2002-08-01 08:17:00 51°16.153 2°56.38 58.8 14 55.4 9.8
2002-08-01 08:17:05 51°16.164 2°56.405 59 14 55.5 9.9
2002-08-01 08:17:09 51°16.173 2°56.426 59.3 14 56 9.8
2002-08-01 08:17:15 51°16.185 2°56.457 60 14 56.9 9.8
2002-08-01 08:17:20 51°16.196 2°56.483 60.7 14 57.4 9.9
2002-08-01 08:17:24 51°16.203 2°56.504 61.8 13.9 58.3 9.9
2002-08-01 08:17:29 51°16.213 2°56.531 62 13.9 58.8 9.9
2002-08-01 08:17:35 51°16.224 2°56.562 62.3 13.9 59.2 10.1
2002-08-01 08:17:39 51°16.232 2°56.584 62.2 13.9 59.3 10
2002-08-01 08:17:45 51°16.243 2°56.615 62.2 13.9 59 10
2002-08-01 08:17:49 51°16.251 2°56.636 62 14 58.6 9.9
2002-08-01 08:17:55 51°16.263 2°56.668 61.3 14 58.1 9.9
2002-08-01 08:18:00 51°16.274 2°56.694 60.8 13.9 57.8 9.9
2002-08-01 08:18:04 51°16.282 2°56.714 60.5 13.9 57.5 9.9
2002-08-01 08:18:09 51°16.293 2°56.741 61 13.9 57.9 9.9
2002-08-01 08:18:14 51°16.304 2°56.767 61 13.9 57.9 9.9
2002-08-01 08:18:19 51°16.314 2°56.793 61.2 13.9 58 10
2002-08-01 08:18:25 51°16.326 2°56.824 61.3 13.9 58.2 9.9
2002-08-01 08:18:29 51°16.334 2°56.845 61.5 13.9 58.3 9.9
2002-08-01 08:18:35 51°16.346 2°56.876 61.2 13.9 58.2 9.9
2002-08-01 08:18:39 51°16.354 2°56.897 61.3 13.9 58.2 9.9
2002-08-01 08:18:45 51°16.367 2°56.928 60.8 13.9 58 10
2002-08-01 08:18:49 51°16.375 2°56.949 60.8 13.9 57.9 10
2002-08-01 08:18:53 51°16.383 2°56.97 61.3 13.9 58 10
2002-08-01 08:18:59 51°16.395 2°57.001 61.3 13.9 58.2 10
2002-08-01 08:19:05 51°16.407 2°57.032 60.8 13.9 57.9 10
2002-08-01 08:19:09 51°16.415 2°57.053 61.2 13.9 57.9 10
2002-08-01 08:19:15 51°16.427 2°57.084 60.8 13.8 57.8 10
2002-08-01 08:19:20 51°16.437 2°57.11 61.2 13.9 57.8 10
2002-08-01 08:19:24 51°16.446 2°57.131 61.2 13.9 57.8 10
2002-08-01 08:19:29 51°16.456 2°57.157 61.3 13.9 57.9 10
2002-08-01 08:19:33 51°16.464 2°57.177 60.8 13.9 57.8 10.1
2002-08-01 08:19:39 51°16.476 2°57.209 61 13.9 57.8 10
2002-08-01 08:19:45 51°16.488 2°57.24 61.3 13.9 57.9 10
2002-08-01 08:19:49 51°16.496 2°57.261 60.8 13.9 57.9 10
2002-08-01 08:19:55 51°16.508 2°57.292 61.2 13.9 58 10
2002-08-01 08:19:59 51°16.517 2°57.312 60.8 13.9 57.6 10
2002-08-01 08:20:04 51°16.527 2°57.338 60.5 13.9 57.4 10
2002-08-01 08:20:09 51°16.538 2°57.364 60.7 13.9 57.3 10
2002-08-01 08:20:15 51°16.55 2°57.395 60.5 14 57.2 10
2002-08-01 08:20:20 51°16.561 2°57.421 60.5 14 57.1 10
2002-08-01 08:20:24 51°16.569 2°57.442 60.5 14 57.1 10
2002-08-01 08:20:29 51°16.579 2°57.468 61.3 13.9 57.7 10
2002-08-01 08:20:34 51°16.59 2°57.494 61 13.9 57.7 10
2002-08-01 08:20:39 51°16.6 2°57.52 61 13.9 57.6 10
2002-08-01 08:20:45 51°16.613 2°57.551 60.8 13.9 57.2 10
2002-08-01 08:20:49 51°16.622 2°57.571 60.3 14 56.7 10
2002-08-01 08:20:55 51°16.634 2°57.603 60.7 14 57 10
2002-08-01 08:20:59 51°16.643 2°57.623 60.8 14 57.1 9.9
2002-08-01 08:21:05 51°16.655 2°57.654 61.3 13.9 57.5 9.9
2002-08-01 08:21:09 51°16.664 2°57.675 60.7 13.9 57.5 9.8
2002-08-01 08:21:13 51°16.672 2°57.696 61.2 13.9 57.5 9.9
2002-08-01 08:21:19 51°16.685 2°57.727 60.8 14 57.3 9.8
2002-08-01 08:21:25 51°16.698 2°57.759 61.3 14 57.4 9.9
2002-08-01 08:21:29 51°16.706 2°57.779 61 14 57.4 9.9
2002-08-01 08:21:34 51°16.716 2°57.805 61.2 14 57.5 9.9
2002-08-01 08:21:39 51°16.727 2°57.831 61.5 13.9 57.9 9.9
2002-08-01 08:21:44 51°16.737 2°57.858 61.8 13.9 58.2 10
2002-08-01 08:21:49 51°16.747 2°57.884 62 13.9 58.4 9.9
2002-08-01 08:21:55 51°16.759 2°57.915 61.7 14 58.2 10
2002-08-01 08:22:00 51°16.769 2°57.942 61.5 14 58 10
2002-08-01 08:22:04 51°16.778 2°57.963 61.2 14 57.8 10
2002-08-01 08:22:09 51°16.788 2°57.989 61.2 14 57.7 10
2002-08-01 08:22:15 51°16.801 2°58.02 60.7 14 57.4 9.9
2002-08-01 08:22:19 51°16.809 2°58.041 61.3 14 57.7 9.9
2002-08-01 08:22:25 51°16.822 2°58.072 60.5 14 57.3 9.9
2002-08-01 08:22:29 51°16.83 2°58.093 60.2 14 56.8 9.9
2002-08-01 08:22:35 51°16.843 2°58.123 59.5 14 56.5 9.9
2002-08-01 08:22:39 51°16.851 2°58.144 60.3 13.9 56.7 10
2002-08-01 08:22:45 51°16.864 2°58.175 60.5 13.9 56.8 9.9
2002-08-01 08:22:49 51°16.872 2°58.196 60.5 14 57 10
2002-08-01 08:22:53 51°16.881 2°58.217 60.8 14 57 9.9
2002-08-01 08:22:59 51°16.893 2°58.248 61.7 14 57.8 9.9
2002-08-01 08:23:05 51°16.905 2°58.28 61.7 14 57.9 9.9
2002-08-01 08:23:09 51°16.913 2°58.301 62.2 13.9 58.6 9.9
2002-08-01 08:23:15 51°16.925 2°58.332 62 13.9 58.6 9.9
2002-08-01 08:23:20 51°16.935 2°58.359 62.3 13.9 58.7 9.9
2002-08-01 08:23:25 51°16.946 2°58.385 62.2 14 58.4 9.9
2002-08-01 08:23:29 51°16.954 2°58.405 61.5 14 57.9 9.9
2002-08-01 08:23:33 51°16.962 2°58.426 61 14 57.7 9.9
2002-08-01 08:23:39 51°16.975 2°58.457 61 13.9 57.1 10
2002-08-01 08:23:45 51°16.988 2°58.488 60.3 14 56.8 9.9
2002-08-01 08:23:49 51°16.997 2°58.509 59.5 14.1 56.1 9.9
2002-08-01 08:23:55 51°17.01 2°58.54 59.8 14 56.2 9.9
2002-08-01 08:23:59 51°17.019 2°58.562 60.2 14 56.5 9.9
2002-08-01 08:24:04 51°17.029 2°58.587 60.5 13.9 56.8 9.9
2002-08-01 08:24:09 51°17.039 2°58.613 61.2 13.9 57.5 9.8
2002-08-01 08:24:15 51°17.051 2°58.644 61.5 14 58.1 9.9
2002-08-01 08:24:20 51°17.062 2°58.671 61.3 14 58.1 9.9
2002-08-01 08:24:24 51°17.07 2°58.692 61.2 14 58 9.9
2002-08-01 08:24:29 51°17.08 2°58.718 61.5 14 58 9.9
2002-08-01 08:24:35 51°17.093 2°58.749 61.2 14 57.7 9.9
2002-08-01 08:24:39 51°17.101 2°58.77 61.2 14 57.8 9.9
2002-08-01 08:24:45 51°17.113 2°58.802 61.3 14 58 9.9
2002-08-01 08:24:49 51°17.121 2°58.823 61.3 14 58.1 9.9
2002-08-01 08:24:55 51°17.134 2°58.854 61.3 14 58.1 9.8
2002-08-01 08:24:59 51°17.142 2°58.875 61.5 14 58 9.8
2002-08-01 08:25:05 51°17.154 2°58.906 61.3 14 57.9 9.8
2002-08-01 08:25:09 51°17.162 2°58.927 61.8 14 58.4 9.8
2002-08-01 08:25:13 51°17.17 2°58.948 62 14 58.5 9.8
2002-08-01 08:25:19 51°17.183 2°58.98 61.7 14 58.5 9.8
2002-08-01 08:25:25 51°17.195 2°59.012 61.5 14.1 58.3 9.8
2002-08-01 08:25:29 51°17.203 2°59.032 61.2 14 57.9 9.8
2002-08-01 08:25:34 51°17.214 2°59.058 61 13.9 57.4 9.7
2002-08-01 08:25:39 51°17.224 2°59.084 60.8 13.9 57.2 9.8
2002-08-01 08:25:45 51°17.237 2°59.115 60 14 56.6 9.8
2002-08-01 08:25:49 51°17.245 2°59.136 60.5 14 56.6 9.8
2002-08-01 08:25:55 51°17.258 2°59.167 60 14 56.4 9.8
2002-08-01 08:26:00 51°17.269 2°59.192 59.5 14 56.3 9.8
2002-08-01 08:26:04 51°17.277 2°59.213 60.5 13.9 56.7 9.7
2002-08-01 08:26:09 51°17.288 2°59.239 60.3 13.9 56.8 9.8
2002-08-01 08:26:15 51°17.3 2°59.27 60.5 13.9 57 9.7
2002-08-01 08:26:19 51°17.309 2°59.291 61 14 57.2 9.7
2002-08-01 08:26:25 51°17.321 2°59.322 61.3 14 57.5 9.7
2002-08-01 08:26:29 51°17.33 2°59.343 61.2 14 57.6 9.7
2002-08-01 08:26:34 51°17.34 2°59.369 61 14 57.6 9.7
2002-08-01 08:26:39 51°17.351 2°59.395 61.2 14 57.6 9.7
2002-08-01 08:26:45 51°17.363 2°59.426 61.7 13.9 57.9 9.8
2002-08-01 08:26:49 51°17.371 2°59.447 62 13.9 58.3 9.8
2002-08-01 08:26:55 51°17.383 2°59.479 62.3 13.9 58.6 9.7
2002-08-01 08:26:59 51°17.391 2°59.5 62 14 58.5 9.6
2002-08-01 08:27:05 51°17.404 2°59.532 61.3 14.1 58.1 9.7
2002-08-01 08:27:09 51°17.412 2°59.552 60.3 14 57.2 9.6
2002-08-01 08:27:15 51°17.425 2°59.583 60.5 13.9 57.1 9.6
2002-08-01 08:27:20 51°17.435 2°59.609 60.8 13.9 57 9.6
2002-08-01 08:27:25 51°17.445 2°59.635 60.8 13.9 57.1 9.6
2002-08-01 08:27:29 51°17.454 2°59.656 60.7 14 57.1 9.5
2002-08-01 08:27:33 51°17.462 2°59.677 61.3 14 57.5 9.7
2002-08-01 08:27:39 51°17.475 2°59.708 61.3 14 57.6 9.7
2002-08-01 08:27:45 51°17.487 2°59.739 61.7 14 57.8 9.8
2002-08-01 08:27:49 51°17.495 2°59.76 61.5 14 57.7 9.7
2002-08-01 08:27:55 51°17.508 2°59.792 61.3 14 57.3 9.7
2002-08-01 08:28:00 51°17.519 2°59.817 60.7 14 57 9.6
2002-08-01 08:28:05 51°17.529 2°59.843 60 14 56.4 9.5
2002-08-01 08:28:09 51°17.538 2°59.864 60.3 14 56.5 9.5
2002-08-01 08:28:15 51°17.55 2°59.895 61 14 57.1 9.5
2002-08-01 08:28:20 51°17.561 2°59.921 61.3 14 57.6 9.5
2002-08-01 08:28:24 51°17.569 2°59.942 61.7 13.9 57.8 9.5
2002-08-01 08:28:29 51°17.578 2°59.968 62.3 13.9 58.5 9.6
2002-08-01 08:28:35 51°17.59 2°60 62.3 13.9 58.8 9.5
2002-08-01 08:28:39 51°17.598 3°0.021 62.8 13.9 59.1 9.6
2002-08-01 08:28:45 51°17.61 3°0.053 62.5 13.9 59 9.5
2002-08-01 08:28:49 51°17.618 3°0.074 63.2 13.9 59.3 9.4
2002-08-01 08:28:55 51°17.63 3°0.105 63 13.9 59.3 9.5
2002-08-01 08:28:59 51°17.638 3°0.126 62.5 13.9 58.9 9.4
2002-08-01 08:29:05 51°17.65 3°0.158 62.3 13.9 58.6 9.4
2002-08-01 08:29:09 51°17.659 3°0.179 61.5 13.9 58 9.4
2002-08-01 08:29:15 51°17.671 3°0.21 61.5 13.9 57.8 9.4
2002-08-01 08:29:19 51°17.679 3°0.23 61.2 13.9 57.5 9.4
2002-08-01 08:29:25 51°17.692 3°0.261 61.2 13.8 57.6 9.3
2002-08-01 08:29:29 51°17.7 3°0.282 61.3 13.8 57.8 9.3
2002-08-01 08:29:34 51°17.71 3°0.309 61.5 13.9 57.9 9.3
2002-08-01 08:29:39 51°17.72 3°0.335 62 13.8 58.2 9.2
2002-08-01 08:29:45 51°17.732 3°0.366 61.8 13.8 58.2 9.2
2002-08-01 08:29:49 51°17.741 3°0.387 61.8 13.8 58.1 9.3
2002-08-01 08:29:55 51°17.753 3°0.418 62 13.8 58.3 9.2
2002-08-01 08:30:00 51°17.763 3°0.444 61.7 13.9 58.3 9.3
2002-08-01 08:30:04 51°17.771 3°0.465 61.2 13.9 57.8 9.2
2002-08-01 08:30:09 51°17.782 3°0.49 60.8 13.9 57.3 9.1
2002-08-01 08:30:15 51°17.794 3°0.521 60.5 13.8 57 9.1
2002-08-01 08:30:19 51°17.803 3°0.542 60.7 13.8 57 9.1
2002-08-01 08:30:25 51°17.815 3°0.572 60.2 13.8 56.6 9.1
2002-08-01 08:30:29 51°17.824 3°0.593 60 13.9 56.5 9.1
2002-08-01 08:30:34 51°17.834 3°0.618 59.7 13.8 56.3 9.1
2002-08-01 08:30:39 51°17.845 3°0.643 59.5 13.8 56 9.1
2002-08-01 08:30:45 51°17.858 3°0.674 59.8 13.7 56.3 8.9
2002-08-01 08:30:49 51°17.866 3°0.694 60.7 13.7 56.9 8.9
2002-08-01 08:30:55 51°17.879 3°0.725 61.2 13.7 57.6 8.9
2002-08-01 08:30:59 51°17.887 3°0.746 61.2 13.8 57.8 8.9
2002-08-01 08:31:05 51°17.899 3°0.777 61.5 13.8 58.1 8.9
2002-08-01 08:31:09 51°17.907 3°0.798 60.8 13.8 57.5 8.9
2002-08-01 08:31:15 51°17.919 3°0.828 61 13.7 57 8.9
2002-08-01 08:31:20 51°17.93 3°0.853 59.8 13.7 56.2 8.8
2002-08-01 08:31:25 51°17.94 3°0.878 59.8 13.6 56.3 8.9
2002-08-01 08:31:29 51°17.949 3°0.898 59.2 13.6 55.6 8.8
2002-08-01 08:31:35 51°17.962 3°0.927 59.2 13.7 55.5 8.8
2002-08-01 08:31:39 51°17.97 3°0.947 58.7 13.7 55.1 8.8
2002-08-01 08:31:45 51°17.983 3°0.977 58.7 13.7 55.1 9
2002-08-01 08:31:49 51°17.992 3°0.997 58.7 13.7 55.3 8.9
2002-08-01 08:31:55 51°18.005 3°1.028 59.5 13.7 55.8 8.8
2002-08-01 08:32:00 51°18.016 3°1.053 59.8 13.6 56.2 8.8
2002-08-01 08:32:05 51°18.025 3°1.078 61 13.6 57 8.8
2002-08-01 08:32:09 51°18.034 3°1.099 61.7 13.7 58 8.7
2002-08-01 08:32:15 51°18.045 3°1.13 62 13.7 58.6 8.8
2002-08-01 08:32:20 51°18.055 3°1.156 62.8 13.7 58.9 8.8
2002-08-01 08:32:24 51°18.063 3°1.177 62 13.8 58.6 8.9
2002-08-01 08:32:29 51°18.073 3°1.203 61.8 13.8 58.2 8.9
2002-08-01 08:32:35 51°18.085 3°1.233 61.5 13.8 57.9 8.8
2002-08-01 08:32:39 51°18.094 3°1.254 60.7 13.8 57.3 8.8
2002-08-01 08:32:44 51°18.104 3°1.279 60 13.7 56.7 8.9
2002-08-01 08:32:49 51°18.114 3°1.304 60.7 13.7 56.8 8.8
2002-08-01 08:32:55 51°18.127 3°1.335 61 13.7 57 8.7
2002-08-01 08:33:00 51°18.137 3°1.36 60.7 13.8 57.3 8.6
2002-08-01 08:33:05 51°18.147 3°1.386 61 13.7 57.2 8.7
2002-08-01 08:33:09 51°18.155 3°1.406 60.7 13.6 57.1 8.7
2002-08-01 08:33:15 51°18.167 3°1.436 61 13.5 57.4 8.7
2002-08-01 08:33:20 51°18.177 3°1.461 61.7 13.5 57.7 8.6
2002-08-01 08:33:24 51°18.185 3°1.482 60.7 13.6 57.4 8.6
2002-08-01 08:33:29 51°18.196 3°1.507 60.5 13.7 57 8.6
2002-08-01 08:33:35 51°18.208 3°1.536 60 13.6 56.3 8.6
2002-08-01 08:33:39 51°18.216 3°1.556 59.5 13.5 56 8.6
2002-08-01 08:33:45 51°18.229 3°1.586 59 13.5 55.5 8.6
2002-08-01 08:33:49 51°18.238 3°1.605 59.3 13.5 55.4 8.6
2002-08-01 08:33:54 51°18.249 3°1.63 59 13.6 55.2 8.5
2002-08-01 08:33:59 51°18.259 3°1.655 59.3 13.6 55.6 8.6
2002-08-01 08:34:05 51°18.272 3°1.685 59.5 13.6 55.9 8.5
2002-08-01 08:34:09 51°18.28 3°1.705 59.7 13.6 56.2 8.6
2002-08-01 08:34:15 51°18.292 3°1.735 60 13.5 56.4 8.5
2002-08-01 08:34:19 51°18.3 3°1.755 61 13.5 57.1 8.6
2002-08-01 08:34:25 51°18.312 3°1.786 61.8 13.5 57.8 8.6
2002-08-01 08:34:29 51°18.32 3°1.806 62.3 13.6 58.5 8.7
2002-08-01 08:34:34 51°18.329 3°1.832 62.8 13.6 59.2 8.5
2002-08-01 08:34:39 51°18.339 3°1.858 63.5 13.6 59.6 8.6
2002-08-01 08:34:45 51°18.35 3°1.89 63.7 13.7 59.8 8.7
2002-08-01 08:34:49 51°18.357 3°1.91 63.8 13.6 60 8.6
2002-08-01 08:34:55 51°18.369 3°1.941 63.3 13.6 59.4 8.6
2002-08-01 08:35:00 51°18.379 3°1.967 62.2 13.7 58.8 8.7
2002-08-01 08:35:04 51°18.387 3°1.987 60.3 13.7 57.6 8.7
2002-08-01 08:35:09 51°18.398 3°2.012 60 13.6 56.8 8.6
2002-08-01 08:35:14 51°18.408 3°2.037 59.5 13.6 56.3 8.3
2002-08-01 08:35:19 51°18.418 3°2.062 59.2 13.5 55.8 8.6
2002-08-01 08:35:25 51°18.431 3°2.092 59.3 13.5 56.1 8.4
2002-08-01 08:35:29 51°18.439 3°2.112 59.7 13.5 56.2 8.4
2002-08-01 08:35:35 51°18.451 3°2.142 60.7 13.6 57 8.5
2002-08-01 08:35:39 51°18.459 3°2.162 60.7 13.6 57.3 8.4
2002-08-01 08:35:45 51°18.471 3°2.193 61.7 13.5 58 8.3
2002-08-01 08:35:49 51°18.478 3°2.213 62 13.5 58.6 8.6
2002-08-01 08:35:55 51°18.49 3°2.244 62.8 13.6 59.1 8.3
2002-08-01 08:35:59 51°18.498 3°2.265 62.5 13.6 59 8.4
2002-08-01 08:36:05 51°18.51 3°2.295 62.5 13.6 59.1 8.5
2002-08-01 08:36:09 51°18.517 3°2.315 62.2 13.4 58.7 8.4
2002-08-01 08:36:15 51°18.529 3°2.346 62.3 13.5 58.7 8.5
2002-08-01 08:36:19 51°18.537 3°2.367 62.5 13.6 58.7 8.3
2002-08-01 08:36:25 51°18.549 3°2.397 62 13.6 58.6 8.2
2002-08-01 08:36:29 51°18.557 3°2.417 61.5 13.5 58.1 8.5
2002-08-01 08:36:35 51°18.57 3°2.447 60.8 13.4 57.5 8.3
2002-08-01 08:36:39 51°18.578 3°2.467 59.8 13.4 56.4 8.1
2002-08-01 08:36:45 51°18.591 3°2.496 59 13.4 55.8 8
2002-08-01 08:36:49 51°18.599 3°2.516 59 13.4 55.5 8.2
2002-08-01 08:36:55 51°18.612 3°2.546 59.3 13.5 55.5 8.4
2002-08-01 08:37:00 51°18.622 3°2.57 59 13.5 55.5 8
2002-08-01 08:37:05 51°18.632 3°2.595 59.7 13.5 56 8
2002-08-01 08:37:09 51°18.64 3°2.615 60.8 13.5 57.2 7.8
2002-08-01 08:37:15 51°18.651 3°2.646 62 13.5 58.8 8.3
2002-08-01 08:37:20 51°18.661 3°2.671 63.2 13.4 59.8 8
2002-08-01 08:37:24 51°18.668 3°2.692 63.7 13.4 60.3 8.1
2002-08-01 08:37:29 51°18.677 3°2.718 64 13.4 60.4 8.1
2002-08-01 08:37:34 51°18.686 3°2.744 63.5 13.4 60.2 8.1
2002-08-01 08:37:39 51°18.696 3°2.769 63.3 13.4 59.9 8
2002-08-01 08:37:45 51°18.707 3°2.799 62.5 13.3 59.1 8
2002-08-01 08:37:49 51°18.715 3°2.819 61 13.3 57.9 8
2002-08-01 08:37:55 51°18.728 3°2.848 59.3 13.3 56.1 7.9
2002-08-01 08:37:59 51°18.737 3°2.867 58.7 13.3 54.9 8
2002-08-01 08:38:05 51°18.75 3°2.896 57.7 13.4 54 8.2
2002-08-01 08:38:09 51°18.759 3°2.915 57.2 13.4 53.7 8
2002-08-01 08:38:15 51°18.772 3°2.943 56.5 13.4 53.2 7.8
2002-08-01 08:38:19 51°18.782 3°2.962 55.7 13.4 52.2 7.8
2002-08-01 08:38:25 51°18.795 3°2.989 55.8 13.4 51.7 7.9
2002-08-01 08:38:29 51°18.804 3°3.008 55.5 13.3 51.4 7.9
2002-08-01 08:38:34 51°18.816 3°3.031 55.7 13.3 51.7 7.9
2002-08-01 08:38:39 51°18.827 3°3.055 55.8 13.4 52 7.9
2002-08-01 08:38:45 51°18.84 3°3.083 56.8 13.4 52.5 7.9
2002-08-01 08:38:49 51°18.849 3°3.102 57.8 13.4 53.7 8
2002-08-01 08:38:55 51°18.862 3°3.131 57.8 13.4 54.2 8
2002-08-01 08:39:00 51°18.873 3°3.155 57.7 13.4 54 7.9
2002-08-01 08:39:04 51°18.882 3°3.174 57.8 13.4 54 8.1
2002-08-01 08:39:09 51°18.893 3°3.198 57.5 13.3 53.7 8.1
2002-08-01 08:39:14 51°18.904 3°3.222 57.5 13.3 53.6 8.2
2002-08-01 08:39:19 51°18.915 3°3.245 56.2 13.4 52.4 8.2
2002-08-01 08:39:25 51°18.929 3°3.273 55.8 13.4 51.9 8.3
2002-08-01 08:39:29 51°18.939 3°3.291 55 13.4 51.2 8.1
2002-08-01 08:39:35 51°18.953 3°3.318 55.2 13.3 51.2 8.2
2002-08-01 08:39:39 51°18.962 3°3.337 54.8 13.3 51.2 8.1
2002-08-01 08:39:45 51°18.976 3°3.364 54 13.3 50.6 8.2
2002-08-01 08:39:49 51°18.986 3°3.383 54.8 13.4 50.8 5
2002-08-01 08:39:55 51°19 3°3.41 54.3 13.4 50.7 8.4
2002-08-01 08:40:00 51°19.011 3°3.433 55 13.4 50.9 8.3
2002-08-01 08:40:04 51°19.02 3°3.452 56.3 13.3 51.9 8.2
2002-08-01 08:40:09 51°19.031 3°3.476 57.3 13.3 53.2 8.4
2002-08-01 08:40:15 51°19.043 3°3.506 59.5 13.3 55.8 8.3
2002-08-01 08:40:19 51°19.051 3°3.525 60.7 13.4 56.7 8.3
2002-08-01 08:40:24 51°19.061 3°3.551 61.8 13.4 57.9 8.3
2002-08-01 08:40:29 51°19.071 3°3.576 62.2 13.4 58.5 8.2
2002-08-01 08:40:35 51°19.082 3°3.606 62.2 13.4 58.7 8.2
2002-08-01 08:40:40 51°19.091 3°3.631 62.3 13.3 58.5 8.3
2002-08-01 08:40:45 51°19.101 3°3.656 62.5 13.3 58.5 8.2
2002-08-01 08:40:49 51°19.109 3°3.675 62 13.3 58.1 8.2
2002-08-01 08:40:54 51°19.119 3°3.7 60.7 13.3 57.4 8.2
2002-08-01 08:40:59 51°19.129 3°3.724 59.3 13.2 55.8 8.2
2002-08-01 08:41:05 51°19.143 3°3.752 58 13.3 54.6 8.2
2002-08-01 08:41:09 51°19.152 3°3.771 57.3 13.3 53.5 8.2
2002-08-01 08:41:15 51°19.165 3°3.799 56.2 13.3 52.3 8.3
2002-08-01 08:41:20 51°19.177 3°3.822 56.5 13.3 52.3 8.3
2002-08-01 08:41:25 51°19.188 3°3.845 55 13.3 51.4 8.4
2002-08-01 08:41:29 51°19.197 3°3.864 56 13.3 51.6 8.3
2002-08-01 08:41:35 51°19.212 3°3.891 54.8 13.3 51 8.2
2002-08-01 08:41:40 51°19.222 3°3.915 56.5 13.4 52.4 8.2
2002-08-01 08:41:45 51°19.233 3°3.939 57.2 13.3 53 8.2
2002-08-01 08:41:49 51°19.242 3°3.959 58.8 13.4 54.7 8.3
2002-08-01 08:41:55 51°19.254 3°3.988 59.7 13.4 55.4 8.3
2002-08-01 08:41:59 51°19.262 3°4.008 60.8 13.4 57 8.4
2002-08-01 08:42:05 51°19.274 3°4.038 61.3 13.3 57.5 8.5
2002-08-01 08:42:09 51°19.282 3°4.059 62.3 13.2 58.5 8.5
2002-08-01 08:42:15 51°19.293 3°4.089 62.5 13.3 58.8 8.4
2002-08-01 08:42:20 51°19.303 3°4.114 62 13.4 58.2 8.4
2002-08-01 08:42:25 51°19.313 3°4.138 60.8 13.4 57.3 8.4
2002-08-01 08:42:29 51°19.322 3°4.157 59.2 13.4 55.5 8.2
2002-08-01 08:42:35 51°19.335 3°4.185 58 13.3 54.1 8.2
2002-08-01 08:42:39 51°19.344 3°4.204 57.2 13.3 53.1 8.2
2002-08-01 08:42:45 51°19.358 3°4.231 54.8 13.3 51.4 8.2
2002-08-01 08:42:49 51°19.367 3°4.249 54.8 13.2 50.6 8.1
2002-08-01 08:42:55 51°19.382 3°4.275 53.3 13.2 49.5 8.2
2002-08-01 08:42:59 51°19.391 3°4.293 53.5 13.2 49.5 8.2
2002-08-01 08:43:05 51°19.406 3°4.319 52 13.2 48.4 8.2
2002-08-01 08:43:09 51°19.415 3°4.336 52.3 13.2 48.1 8.2
2002-08-01 08:43:15 51°19.43 3°4.362 52 13.2 47.8 8.2
2002-08-01 08:43:20 51°19.442 3°4.384 53.2 13.2 48.6 8.2
2002-08-01 08:43:25 51°19.454 3°4.407 53.3 13.3 48.8 8.2
2002-08-01 08:43:29 51°19.463 3°4.425 54.5 13.3 50.3 8.2
2002-08-01 08:43:35 51°19.476 3°4.452 55.8 13.2 51.8 8.2
2002-08-01 08:43:40 51°19.488 3°4.476 56.3 13.2 52.3 8.2
2002-08-01 08:43:45 51°19.498 3°4.499 57 13.2 53.3 8.2
2002-08-01 08:43:49 51°19.507 3°4.518 57.3 13.1 53.5 8.3
2002-08-01 08:43:54 51°19.518 3°4.542 58 13.1 54 8.2
2002-08-01 08:43:59 51°19.529 3°4.565 57.8 13.2 54 8.3
2002-08-01 08:44:05 51°19.542 3°4.594 58.2 13.2 54.1 8.2
2002-08-01 08:44:09 51°19.551 3°4.612 56.8 13.2 53.1 8.2
2002-08-01 08:44:15 51°19.564 3°4.64 56.5 13.2 52.3 8.2
2002-08-01 08:44:19 51°19.574 3°4.658 55.3 13.1 51.2 8.2
2002-08-01 08:44:24 51°19.585 3°4.681 55.3 13.2 51.2 8.2
2002-08-01 08:44:29 51°19.597 3°4.702 53.7 13.2 49.7 8.3
2002-08-01 08:44:34 51°19.609 3°4.725 53.8 13.2 49.6 8.2
2002-08-01 08:44:39 51°19.621 3°4.746 52.3 13.2 48.5 8.2
2002-08-01 08:44:45 51°19.636 3°4.773 53 13.2 48.6 8.3
2002-08-01 08:44:49 51°19.645 3°4.79 52.5 13.2 48.3 8.3
2002-08-01 08:44:54 51°19.657 3°4.812 53.8 13.2 49.3 8.3
2002-08-01 08:44:59 51°19.669 3°4.835 53.8 13.2 49.4 8.2
2002-08-01 08:45:05 51°19.683 3°4.862 54.5 13.2 50.2 8.2
2002-08-01 08:45:09 51°19.692 3°4.88 54.8 13.2 50.5 8.3
2002-08-01 08:45:15 51°19.706 3°4.907 55.7 13.2 51.1 8.2
2002-08-01 08:45:19 51°19.715 3°4.925 55.3 13.2 51.3 8.2
2002-08-01 08:45:25 51°19.729 3°4.953 55.7 13.2 51.5 8.2
2002-08-01 08:45:29 51°19.738 3°4.971 55.8 13.2 51.4 8.2
2002-08-01 08:45:34 51°19.749 3°4.994 55.5 13.2 51.5 8.3
2002-08-01 08:45:39 51°19.761 3°5.016 55.2 13.2 51.1 8.3
2002-08-01 08:45:45 51°19.774 3°5.043 55.5 13.2 51.5 8.3
2002-08-01 08:45:49 51°19.784 3°5.061 54.8 13.2 51 8.2
2002-08-01 08:45:55 51°19.798 3°5.088 54.7 13.2 50.5 8.2
2002-08-01 08:46:00 51°19.809 3°5.111 54.5 13.2 50.5 8.2
2002-08-01 08:46:05 51°19.821 3°5.133 54.2 13.2 50.3 8.2
2002-08-01 08:46:09 51°19.83 3°5.151 53.7 13.2 49.6 8.2
2002-08-01 08:46:15 51°19.845 3°5.176 53 13.2 49 8.2
2002-08-01 08:46:20 51°19.858 3°5.198 51.8 13.2 47.5 8.2
2002-08-01 08:46:25 51°19.87 3°5.219 52 13.1 47.4 8.2
2002-08-01 08:46:29 51°19.88 3°5.237 52.7 13.1 47.9 8.2
2002-08-01 08:46:35 51°19.894 3°5.264 53.8 13.1 49.5 8.2
2002-08-01 08:46:40 51°19.905 3°5.286 54.5 13.2 50.3 8.1
2002-08-01 08:46:45 51°19.916 3°5.309 56 13.1 51.3 8.2
2002-08-01 08:46:49 51°19.925 3°5.328 57.2 13.1 52.7 8.1
2002-08-01 08:46:55 51°19.938 3°5.355 56.8 13.1 53 8.1
2002-08-01 08:47:00 51°19.949 3°5.379 57.8 13.1 53.7 8.1
2002-08-01 08:47:05 51°19.959 3°5.402 57.8 13.1 53.7 8.2
2002-08-01 08:47:09 51°19.968 3°5.421 58.8 13 54.6 8.2
2002-08-01 08:47:15 51°19.981 3°5.449 58.7 13.1 54.3 8.2
2002-08-01 08:47:20 51°19.991 3°5.473 57.8 13.1 54 8.2
2002-08-01 08:47:24 51°20 3°5.491 57.5 13.1 53.7 8.2
2002-08-01 08:47:29 51°20.012 3°5.514 56.2 13.1 52.3 8.1
2002-08-01 08:47:35 51°20.025 3°5.541 55.2 13.1 51.2 8.1
2002-08-01 08:47:39 51°20.034 3°5.558 53.8 13.1 49.9 8.1
2002-08-01 08:47:45 51°20.049 3°5.583 52 13 47.8 8.1
2002-08-01 08:47:49 51°20.059 3°5.6 51.5 13 47 8.1
2002-08-01 08:47:54 51°20.072 3°5.621 51 13.1 46.4 8.1
2002-08-01 08:47:59 51°20.084 3°5.642 51 13.1 46.4 8.1
2002-08-01 08:48:05 51°20.099 3°5.668 51.8 13 47 8.1
2002-08-01 08:48:09 51°20.109 3°5.685 52.7 13 47.8 8.1
2002-08-01 08:48:15 51°20.123 3°5.711 52.7 13.1 48.3 8.1
2002-08-01 08:48:20 51°20.135 3°5.733 54.2 13.1 49.5 8.1
2002-08-01 08:48:25 51°20.146 3°5.756 55 13 50.7 8
2002-08-01 08:48:29 51°20.155 3°5.774 56 13 51.6 8
2002-08-01 08:48:34 51°20.166 3°5.797 57 12.9 52.7 8
2002-08-01 08:48:39 51°20.176 3°5.82 58.2 12.9 53.9 8
2002-08-01 08:48:45 51°20.189 3°5.849 58.7 13 54.3 8
2002-08-01 08:48:49 51°20.196 3°5.868 59.5 13 55.3 8
2002-08-01 08:48:55 51°20.209 3°5.896 59.5 13 55.3 8
2002-08-01 08:48:59 51°20.217 3°5.915 59 13 55 8
2002-08-01 08:49:05 51°20.23 3°5.943 58.2 13 53.8 8
2002-08-01 08:49:09 51°20.239 3°5.961 57.2 12.9 52.9 7.9
2002-08-01 08:49:15 51°20.253 3°5.987 55.8 12.9 51.8 7.9
2002-08-01 08:49:20 51°20.265 3°6.009 54.7 13 50.2 7.9
2002-08-01 08:49:25 51°20.277 3°6.03 52.8 13 48.4 7.9
2002-08-01 08:49:29 51°20.287 3°6.047 51.3 13 47.2 7.9
2002-08-01 08:49:34 51°20.3 3°6.067 50.2 13 45.8 7.9
2002-08-01 08:49:39 51°20.313 3°6.087 49.2 13 44.8 7.9
2002-08-01 08:49:44 51°20.325 3°6.108 50.2 13 45.5 7.9
2002-08-01 08:49:49 51°20.338 3°6.128 50.3 13 46.1 7.9
2002-08-01 08:49:55 51°20.352 3°6.154 52 13 47.6 7.9
2002-08-01 08:50:00 51°20.363 3°6.176 53.3 13 48.9 7.9
2002-08-01 08:50:05 51°20.375 3°6.199 55.2 13 51.1 7.9
2002-08-01 08:50:09 51°20.383 3°6.218 57 13 52.8 7.9
2002-08-01 08:50:14 51°20.393 3°6.241 58.5 13 54.3 7.9
2002-08-01 08:50:19 51°20.403 3°6.266 60.3 13 56.4 7.8
2002-08-01 08:50:25 51°20.415 3°6.295 61.2 12.9 57.4 7.9
2002-08-01 08:50:29 51°20.423 3°6.314 61.7 12.9 57.7 7.9
2002-08-01 08:50:35 51°20.434 3°6.343 61.7 12.9 57.6 7.9
2002-08-01 08:50:40 51°20.444 3°6.366 60.5 12.9 56.7 7.8
2002-08-01 08:50:45 51°20.455 3°6.389 58.3 12.8 54.6 7.8
2002-08-01 08:50:49 51°20.464 3°6.406 56 12.9 51.9 7.8
2002-08-01 08:50:55 51°20.478 3°6.432 54.3 12.9 49.7 7.8
2002-08-01 08:50:59 51°20.488 3°6.449 52.7 12.9 48.2 7.8
2002-08-01 08:51:05 51°20.504 3°6.473 50.5 12.9 46.2 7.8
2002-08-01 08:51:09 51°20.515 3°6.488 47.3 12.9 43.2 7.7
2002-08-01 08:51:15 51°20.531 3°6.51 45.7 12.9 40.6 7.8
2002-08-01 08:51:20 51°20.545 3°6.528 44.3 12.9 39.6 7.8
2002-08-01 08:51:24 51°20.556 3°6.542 42.8 12.9 38.5 7.8
2002-08-01 08:51:29 51°20.57 3°6.559 42.8 12.9 38.1 7.8
2002-08-01 08:51:35 51°20.587 3°6.581 43.7 12.9 38.7 7.7
2002-08-01 08:51:39 51°20.598 3°6.596 43.5 13 38.9 7.7
2002-08-01 08:51:45 51°20.614 3°6.618 44.5 13 40.1 7.7
2002-08-01 08:51:49 51°20.625 3°6.633 45.8 13 41 7.8
2002-08-01 08:51:55 51°20.64 3°6.657 48 12.9 43 7.8
2002-08-01 08:51:59 51°20.65 3°6.674 49.3 12.9 44.8 7.7
2002-08-01 08:52:05 51°20.664 3°6.699 51.5 12.9 46.7 7.8
2002-08-01 08:52:09 51°20.674 3°6.717 53 12.9 48.4 7.7
2002-08-01 08:52:15 51°20.688 3°6.743 54.2 12.8 49.6 7.7
2002-08-01 08:52:20 51°20.699 3°6.764 54.2 12.8 49.9 7.7
2002-08-01 08:52:25 51°20.711 3°6.785 53.8 12.7 49.1 7.7
2002-08-01 08:52:29 51°20.721 3°6.801 50.8 12.7 47.1 7.8
2002-08-01 08:52:35 51°20.737 3°6.823 46.8 12.8 43.6 7.8
2002-08-01 08:52:39 51°20.749 3°6.837 44.3 12.9 39.6 7.7
2002-08-01 08:52:44 51°20.763 3°6.853 41.5 12.9 37.1 7.7
2002-08-01 08:52:49 51°20.778 3°6.869 39.3 12.9 34.5 7.7
2002-08-01 08:52:55 51°20.796 3°6.887 37.5 12.9 32.9 7.7
2002-08-01 08:53:00 51°20.81 3°6.903 38.7 12.8 33.1 7.8
2002-08-01 08:53:04 51°20.822 3°6.917 40.3 12.8 35 7.7
2002-08-01 08:53:09 51°20.837 3°6.933 39.7 12.9 35.1 7.8
2002-08-01 08:53:15 51°20.854 3°6.953 39.7 12.9 34.8 7.8
2002-08-01 08:53:19 51°20.866 3°6.965 39.2 12.9 34.2 7.8
2002-08-01 08:53:25 51°20.884 3°6.984 38.3 12.9 33.6 7.8
2002-08-01 08:53:29 51°20.896 3°6.996 38 12.9 33 7.8
2002-08-01 08:53:35 51°20.915 3°7.014 36.8 13 31.9 7.8
2002-08-01 08:53:39 51°20.927 3°7.026 36.2 13.1 31.2 7.8
2002-08-01 08:53:45 51°20.946 3°7.043 35.3 13.1 30.6 7.8
2002-08-01 08:53:49 51°20.959 3°7.055 34.7 13.1 30.1 7.9
2002-08-01 08:53:55 51°20.977 3°7.073 35.5 13 30.8 7.9
2002-08-01 08:54:00 51°20.993 3°7.089 36.5 13 31.7 8
2002-08-01 08:54:04 51°21.004 3°7.102 38.5 13 33.1 8
2002-08-01 08:54:09 51°21.019 3°7.119 40 13.1 35.4 8.1
2002-08-01 08:54:14 51°21.033 3°7.138 42.5 13.1 38 8.1
2002-08-01 08:54:19 51°21.047 3°7.157 45 13.2 40.1 8.1
2002-08-01 08:54:25 51°21.063 3°7.181 47 13.1 42 8.1
2002-08-01 08:54:29 51°21.074 3°7.197 48 13.1 43.1 8.1
2002-08-01 08:54:35 51°21.089 3°7.221 48.8 13.1 44.1 8.2
2002-08-01 08:54:39 51°21.1 3°7.238 49 13.1 44.5 8.3
2002-08-01 08:54:45 51°21.115 3°7.262 48.5 13.2 44.4 8.4
2002-08-01 08:54:49 51°21.126 3°7.278 47.8 13.2 43.9 8.4
2002-08-01 08:54:53 51°21.137 3°7.293 46.8 13.2 42.9 8.5
2002-08-01 08:54:59 51°21.154 3°7.315 45 13.2 40.5 8.5
2002-08-01 08:55:05 51°21.172 3°7.337 43.5 13.3 39 8.5
2002-08-01 08:55:09 51°21.183 3°7.352 43.8 13.3 38.4 8.5
2002-08-01 08:55:15 51°21.201 3°7.374 42.8 13.3 37.8 8.6
2002-08-01 08:55:20 51°21.216 3°7.392 43.3 13.3 38.1 8.7
2002-08-01 08:55:25 51°21.23 3°7.411 43 13.4 38.1 8.7
2002-08-01 08:55:29 51°21.241 3°7.426 43.8 13.4 39.1 8.8
2002-08-01 08:55:35 51°21.258 3°7.449 43.7 13.4 39.1 8.9
2002-08-01 08:55:39 51°21.27 3°7.464 44.7 13.4 39.5 8.9
2002-08-01 08:55:45 51°21.287 3°7.487 45 13.4 39.9 9.3
2002-08-01 08:55:49 51°21.298 3°7.503 45.8 13.5 40.8 9.3
2002-08-01 08:55:55 51°21.315 3°7.527 46.2 13.6 41.3 9.4
2002-08-01 08:55:59 51°21.327 3°7.543 46.3 13.7 41.2 9.4
2002-08-01 08:56:05 51°21.344 3°7.566 45 13.7 40.5 9.4
2002-08-01 08:56:09 51°21.356 3°7.582 44.8 13.7 40.2 9.2
2002-08-01 08:56:15 51°21.374 3°7.604 43.3 13.7 38.9 9.4
2002-08-01 08:56:20 51°21.388 3°7.624 44.5 13.6 39.3 9.4
2002-08-01 08:56:24 51°21.4 3°7.638 43.3 13.5 38.6 9.5
2002-08-01 08:56:29 51°21.414 3°7.658 43.8 13.6 39.2 9.5
2002-08-01 08:56:35 51°21.432 3°7.681 44.2 13.6 39 9.6
2002-08-01 08:56:39 51°21.444 3°7.696 44.2 13.6 39.2 9.6
2002-08-01 08:56:45 51°21.461 3°7.719 45 13.6 40.1 9.7
2002-08-01 08:56:49 51°21.473 3°7.734 43.8 13.6 39.3 9.8
2002-08-01 08:56:55 51°21.49 3°7.758 44.8 13.6 39.8 9.9
2002-08-01 08:57:00 51°21.505 3°7.777 44.3 13.7 39.6 9.9
2002-08-01 08:57:05 51°21.52 3°7.796 45.2 13.6 40.2 10
2002-08-01 08:57:09 51°21.531 3°7.812 45.2 13.6 40.4 10.1
2002-08-01 08:57:15 51°21.548 3°7.835 46 13.6 40.9 10.1
2002-08-01 08:57:20 51°21.562 3°7.855 46.2 13.6 41.1 10.2
2002-08-01 08:57:25 51°21.577 3°7.875 45.5 13.6 40.6 10.3
2002-08-01 08:57:29 51°21.588 3°7.891 46.8 13.6 41.8 10.4
2002-08-01 08:57:35 51°21.605 3°7.915 46.2 13.7 41.3 10.4
2002-08-01 08:57:40 51°21.62 3°7.935 46.3 13.7 41.6 10.5
2002-08-01 08:57:45 51°21.634 3°7.955 45.7 13.7 41 10.5
2002-08-01 08:57:49 51°21.645 3°7.971 46.5 13.7 41.5 10.6
2002-08-01 08:57:55 51°21.662 3°7.995 45.5 13.6 41 10.6
2002-08-01 08:58:00 51°21.676 3°8.015 46.5 13.6 41.4 10.7
2002-08-01 08:58:05 51°21.691 3°8.034 45.7 13.6 40.9 10.6
2002-08-01 08:58:09 51°21.702 3°8.05 45.5 13.6 40.5 10.7
2002-08-01 08:58:15 51°21.72 3°8.074 45.3 13.6 40.1 10.8
2002-08-01 08:58:20 51°21.734 3°8.093 44.7 13.6 39.8 10.8
2002-08-01 08:58:24 51°21.746 3°8.109 45.2 13.6 40.2 10.9
2002-08-01 08:58:29 51°21.76 3°8.128 45.3 13.6 40.3 11
2002-08-01 08:58:35 51°21.777 3°8.152 45.3 13.6 40.4 11
2002-08-01 08:58:39 51°21.789 3°8.168 45.7 13.6 40.9 11
2002-08-01 08:58:45 51°21.806 3°8.192 45.8 13.6 40.9 11.1
2002-08-01 08:58:49 51°21.817 3°8.208 45.8 13.6 40.9 11.1
2002-08-01 08:58:55 51°21.834 3°8.232 46 13.7 41.1 11.1
2002-08-01 08:58:59 51°21.846 3°8.247 45.7 13.7 40.9 11.2
2002-08-01 08:59:05 51°21.863 3°8.271 46.2 13.7 41.2 11.3
2002-08-01 08:59:09 51°21.875 3°8.287 45.5 13.6 40.7 11.3
2002-08-01 08:59:15 51°21.892 3°8.311 46.2 13.6 41 11.4
2002-08-01 08:59:20 51°21.906 3°8.33 45.7 13.6 40.8 11.4
2002-08-01 08:59:25 51°21.92 3°8.35 45.7 13.7 40.9 11.4
2002-08-01 08:59:29 51°21.932 3°8.366 46 13.7 40.9 11.5
2002-08-01 08:59:35 51°21.949 3°8.39 45.8 13.7 41 11.5
2002-08-01 08:59:40 51°21.963 3°8.41 46 13.6 41.1 11.5
2002-08-01 08:59:45 51°21.978 3°8.43 46.2 13.6 41.6 11.6
2002-08-01 08:59:49 51°21.989 3°8.446 46 13.7 41.2 11.6
2002-08-01 08:59:55 51°22.006 3°8.469 45.7 13.7 40.7 11.7
2002-08-01 09:00:00 51°22.02 3°8.49 46 13.6 40.9 11.8
2002-08-01 09:00:05 51°22.035 3°8.509 46.5 13.6 41.1 11.9
2002-08-01 09:00:09 51°22.046 3°8.525 46.2 13.6 41.1 11.9
2002-08-01 09:00:15 51°22.063 3°8.549 46.3 13.7 41.5 12
2002-08-01 09:00:19 51°22.075 3°8.565 46 13.6 41.1 12
2002-08-01 09:00:25 51°22.092 3°8.589 46.3 13.7 41.4 12
2002-08-01 09:00:29 51°22.103 3°8.605 45.8 13.7 40.7 12.2
2002-08-01 09:00:35 51°22.121 3°8.629 45.8 13.7 40.9 12.2
2002-08-01 09:00:39 51°22.132 3°8.645 45.7 13.7 40.7 12.2
2002-08-01 09:00:45 51°22.149 3°8.668 45.7 13.7 40.6 12.2
2002-08-01 09:00:49 51°22.161 3°8.684 45.3 13.7 40.3 12.3
2002-08-01 09:00:55 51°22.178 3°8.707 46 13.7 40.6 12.3
2002-08-01 09:01:00 51°22.193 3°8.727 45.5 13.7 40.5 12.4
2002-08-01 09:01:05 51°22.207 3°8.747 45.8 13.7 40.6 12.4
2002-08-01 09:01:09 51°22.218 3°8.763 46.2 13.7 41.1 12.4
2002-08-01 09:01:14 51°22.233 3°8.783 45.7 13.7 40.9 12.5
2002-08-01 09:01:19 51°22.247 3°8.803 46 13.7 40.9 12.7
2002-08-01 09:01:25 51°22.265 3°8.826 45.2 13.8 40.4 12.7
2002-08-01 09:01:29 51°22.276 3°8.842 45.5 13.8 40.5 12.6
2002-08-01 09:01:35 51°22.293 3°8.866 45.5 13.8 40.5 12.8
2002-08-01 09:01:40 51°22.308 3°8.886 46 13.7 41 12.8
2002-08-01 09:01:45 51°22.322 3°8.906 45.3 13.8 40.5 12.7
2002-08-01 09:01:49 51°22.334 3°8.922 46.2 13.8 41.1 12.8
2002-08-01 09:01:55 51°22.352 3°8.946 45.3 13.8 40.9 12.7
2002-08-01 09:01:59 51°22.363 3°8.962 46.3 13.8 41.2 12.8
2002-08-01 09:02:05 51°22.381 3°8.985 45.5 13.8 40.3 12.9
2002-08-01 09:02:09 51°22.393 3°9.001 45.5 13.8 40.3 12.9
2002-08-01 09:02:13 51°22.404 3°9.017 45.5 13.8 39.8 12.9
2002-08-01 09:02:20 51°22.425 3°9.044 45.2 13.8 39.9 12.9
2002-08-01 09:02:25 51°22.44 3°9.064 45 13.8 39.8 12.9
2002-08-01 09:02:29 51°22.451 3°9.079 45.2 13.6 39.9 13
2002-08-01 09:02:35 51°22.467 3°9.1 45.8 12.7 40.4 13
2002-08-01 09:02:39 51°22.476 3°9.114 46 12.1 40.9 13
2002-08-01 09:02:45 51°22.489 3°9.134 47.5 11.2 43 13.1
2002-08-01 09:02:49 51°22.497 3°9.147 50.5 10.6 44.8 13
2002-08-01 09:02:55 51°22.507 3°9.166 52.5 9.8 47.4 13.1
2002-08-01 09:03:00 51°22.515 3°9.182 54.2 9.5 48.5 13.2
2002-08-01 09:03:05 51°22.523 3°9.196 55 8.9 49.4 13.3
2002-08-01 09:03:09 51°22.529 3°9.208 54.7 8.6 49.6 13.4
2002-08-01 09:03:15 51°22.538 3°9.224 55 8.4 49.6 13.4
2002-08-01 09:03:20 51°22.545 3°9.237 54.8 8.1 49.2 13.4
2002-08-01 09:03:25 51°22.552 3°9.25 54 7.8 48.4 13.4
2002-08-01 09:03:29 51°22.558 3°9.26 53.8 7.6 48.5 13.4
2002-08-01 09:03:35 51°22.566 3°9.275 54 7.5 48.6 13.4
2002-08-01 09:03:40 51°22.572 3°9.287 54.5 7.2 48.7 13.3
2002-08-01 09:03:45 51°22.579 3°9.297 54 7.1 48.3 13.5
2002-08-01 09:03:49 51°22.584 3°9.307 53.8 6.9 49 13.4
2002-08-01 09:03:54 51°22.59 3°9.317 53.3 6.8 47.5 13.3
2002-08-01 09:04:00 51°22.597 3°9.331 54.5 6.7 48.6 13.3
2002-08-01 09:04:04 51°22.602 3°9.339 54.5 6.5 48.2 13.2
2002-08-01 09:04:09 51°22.607 3°9.349 55.2 6.2 49.2 13.3
2002-08-01 09:04:15 51°22.613 3°9.36 55.3 5.9 49.4 13.3
2002-08-01 09:04:20 51°22.618 3°9.37 56.7 5.7 50.2 13.5
2002-08-01 09:04:25 51°22.623 3°9.379 56.8 5.5 49.9 13.4
2002-08-01 09:04:29 51°22.626 3°9.386 57 5.3 50.5 13.4
2002-08-01 09:04:35 51°22.632 3°9.396 57.2 5.1 50.5 13.5
2002-08-01 09:04:39 51°22.635 3°9.403 57 5 50 13.3
2002-08-01 09:04:45 51°22.64 3°9.413 56.8 4.8 50.3 13.3
2002-08-01 09:04:49 51°22.644 3°9.419 56.3 4.6 49.5 13.4
2002-08-01 09:04:54 51°22.648 3°9.426 55.8 4.5 49 13.4
2002-08-01 09:04:59 51°22.652 3°9.433 55 4.3 47.8 13.5
2002-08-01 09:05:05 51°22.656 3°9.441 53.5 4.2 46.3 13.4
2002-08-01 09:05:09 51°22.66 3°9.446 52 4 45 13.3
2002-08-01 09:05:14 51°22.664 3°9.451 50.7 4 43.6 13.2
2002-08-01 09:05:19 51°22.668 3°9.457 49.2 3.8 41.7 13.3
2002-08-01 09:05:25 51°22.672 3°9.463 47.7 3.6 39.2 13.4
2002-08-01 09:05:29 51°22.675 3°9.467 46 3.6 38.4 13.3
2002-08-01 09:05:35 51°22.68 3°9.472 44.2 3.4 35.6 13.1
2002-08-01 09:05:40 51°22.683 3°9.475 43.2 3.3 34.2 13
2002-08-01 09:05:45 51°22.687 3°9.478 41.8 3 30.8 13.2
2002-08-01 09:05:49 51°22.689 3°9.48 39.5 2.6 28.8 13.3
2002-08-01 09:05:55 51°22.691 3°9.481 35.5 2.1 24 13.3
2002-08-01 09:05:59 51°22.692 3°9.481 31.2 1.4 14.1 13.2
2002-08-01 09:06:05 51°22.693 3°9.481 28.3 0.9 4.1 13.3
2002-08-01 09:06:09 51°22.694 3°9.48 26.7 0.5 342.4 13.3
2002-08-01 09:06:15 51°22.694 3°9.48 26.5 0.4 315.5 13.4
2002-08-01 09:06:20 51°22.694 3°9.479 27 0.3 297.6 13.3
2002-08-01 09:06:25 51°22.694 3°9.478 27.2 0.3 295.2 13.3
2002-08-01 09:06:29 51°22.694 3°9.478 27.3 0.3 297.6 13.3
2002-08-01 09:06:35 51°22.695 3°9.477 27.8 0.4 296.9 13.3
2002-08-01 09:06:39 51°22.695 3°9.477 28.2 0.3 296 13.3
2002-08-01 09:06:44 51°22.695 3°9.476 28.2 0.4 297.4 13.3
2002-08-01 09:06:49 51°22.695 3°9.475 28.3 0.4 295.6 13.3
2002-08-01 09:06:54 51°22.695 3°9.474 28.8 0.4 289.7 13.3
2002-08-01 09:06:59 51°22.696 3°9.474 28.8 0.4 293.4 13.3
2002-08-01 09:07:04 51°22.696 3°9.473 28.8 0.4 297.8 13.2
2002-08-01 09:07:09 51°22.696 3°9.472 28.8 0.4 296.7 13.2
2002-08-01 09:07:14 51°22.696 3°9.471 28.8 0.4 298 13.3
2002-08-01 09:07:19 51°22.697 3°9.47 29 0.4 296.9 13.4
2002-08-01 09:07:24 51°22.697 3°9.469 29 0.4 293 13.3
2002-08-01 09:07:29 51°22.697 3°9.469 29.2 0.4 296.3 13.3
2002-08-01 09:07:34 51°22.697 3°9.468 29.3 0.4 299.9 13.3
2002-08-01 09:07:39 51°22.698 3°9.467 29.5 0.4 301.2 13.3
2002-08-01 09:07:44 51°22.698 3°9.466 29.5 0.4 301.5 13.4
2002-08-01 09:07:49 51°22.698 3°9.466 29.5 0.4 302.2 13.4
2002-08-01 09:07:54 51°22.698 3°9.465 29.3 0.4 304.6 13.4
2002-08-01 09:07:59 51°22.699 3°9.464 29.5 0.4 305.9 13.3
2002-08-01 09:08:04 51°22.699 3°9.463 29.2 0.4 301.6 13.3
2002-08-01 09:08:09 51°22.699 3°9.462 29.2 0.4 298 13.3
2002-08-01 09:08:14 51°22.699 3°9.462 29 0.4 299.7 13.3
2002-08-01 09:08:19 51°22.7 3°9.461 29 0.4 304 13.4
2002-08-01 09:08:24 51°22.7 3°9.46 29 0.4 304.9 13.5
2002-08-01 09:08:29 51°22.7 3°9.459 28.5 0.4 303.3 13.5
2002-08-01 09:08:34 51°22.7 3°9.459 28.3 0.4 300.2 13.5
2002-08-01 09:08:39 51°22.701 3°9.458 28.3 0.4 300.9 13.5
2002-08-01 09:08:44 51°22.701 3°9.457 28.3 0.4 302 13.5
2002-08-01 09:08:49 51°22.701 3°9.457 28.5 0.4 307.9 13.4
2002-08-01 09:08:54 51°22.702 3°9.456 28.7 0.4 315.8 13.5
2002-08-01 09:08:59 51°22.702 3°9.455 28.5 0.4 317.4 13.5
2002-08-01 09:09:04 51°22.702 3°9.455 28.8 0.4 320.2 13.4
2002-08-01 09:09:09 51°22.703 3°9.454 28.8 0.4 322.4 13.5
2002-08-01 09:09:15 51°22.704 3°9.454 29 0.4 325.9 13.5
2002-08-01 09:09:19 51°22.704 3°9.453 28.5 0.5 328 13.5
2002-08-01 09:09:24 51°22.705 3°9.453 28.8 0.5 329.6 13.4
2002-08-01 09:09:29 51°22.705 3°9.452 28.3 0.5 332.4 13.4
2002-08-01 09:09:34 51°22.706 3°9.452 28 0.5 335.9 13.4
2002-08-01 09:09:39 51°22.707 3°9.451 27.8 0.6 340.6 13.3
2002-08-01 09:09:44 51°22.708 3°9.451 27.7 0.6 345.8 13.4
2002-08-01 09:09:49 51°22.709 3°9.451 27.7 0.7 351.2 13.4
2002-08-01 09:09:54 51°22.71 3°9.45 27.5 0.8 351.4 13.1
2002-08-01 09:09:59 51°22.711 3°9.45 27.5 0.9 354.3 13.1
2002-08-01 09:10:04 51°22.713 3°9.45 27.3 0.9 355.5 13.1
2002-08-01 09:10:09 51°22.714 3°9.45 27.5 0.9 357.5 13.2
2002-08-01 09:10:14 51°22.715 3°9.45 27.7 0.9 356.1 13.1
2002-08-01 09:10:19 51°22.716 3°9.45 28.2 0.9 359.5 13.2
2002-08-01 09:10:24 51°22.718 3°9.45 28.3 1 357.5 13.2
2002-08-01 09:10:29 51°22.719 3°9.45 29.2 1 0.7 13.3
2002-08-01 09:10:34 51°22.721 3°9.45 29.7 1 359.3 13.2
2002-08-01 09:10:39 51°22.722 3°9.45 30.7 1 1.2 13.1
2002-08-01 09:10:44 51°22.723 3°9.45 31.3 1 0.2 13.2
2002-08-01 09:10:49 51°22.725 3°9.45 32.3 1 2.2 13.2
2002-08-01 09:10:53 51°22.726 3°9.45 33.2 1 1.4 13.4
2002-08-01 09:10:59 51°22.727 3°9.45 34.2 0.9 2.8 13.4
2002-08-01 09:11:04 51°22.729 3°9.45 35 0.9 3.7 13.4
2002-08-01 09:11:09 51°22.73 3°9.45 35.8 0.9 5.3 13.4
2002-08-01 09:11:14 51°22.731 3°9.451 37.2 0.9 5.7 13.4
2002-08-01 09:11:19 51°22.733 3°9.451 38.3 0.9 8.3 13.4
2002-08-01 09:11:24 51°22.734 3°9.451 39.7 0.9 8.2 13.3
2002-08-01 09:11:29 51°22.735 3°9.452 41 0.9 9.7 13.3
2002-08-01 09:11:34 51°22.736 3°9.452 42.7 0.9 11.6 13.3
2002-08-01 09:11:39 51°22.737 3°9.453 44 0.8 14.4 13.3
2002-08-01 09:11:44 51°22.738 3°9.453 45.3 0.8 14.7 13.3
2002-08-01 09:11:49 51°22.739 3°9.454 46.7 0.8 17.9 13.4
2002-08-01 09:11:54 51°22.74 3°9.454 48 0.8 18 13.3
2002-08-01 09:11:59 51°22.741 3°9.455 49.5 0.8 19.2 13.3
2002-08-01 09:12:05 51°22.743 3°9.456 50.7 0.8 21.5 13.3
2002-08-01 09:12:09 51°22.743 3°9.456 52.2 0.8 23.8 13.3
2002-08-01 09:12:14 51°22.744 3°9.457 53.5 0.8 24.2 13.3
2002-08-01 09:12:19 51°22.745 3°9.457 54.8 0.7 25.6 13.3
2002-08-01 09:12:24 51°22.746 3°9.458 56.2 0.7 28.1 13.3
2002-08-01 09:12:29 51°22.747 3°9.459 57.5 0.7 30.3 13.4
2002-08-01 09:12:34 51°22.748 3°9.46 59 0.7 31.3 13.3
2002-08-01 09:12:39 51°22.749 3°9.461 60.5 0.7 32.9 13.3
2002-08-01 09:12:45 51°22.75 3°9.462 61.8 0.7 33.7 13.4
2002-08-01 09:12:49 51°22.75 3°9.463 63.3 0.7 36.1 13.3
2002-08-01 09:12:53 51°22.751 3°9.464 64.8 0.7 38.1 13.3
2002-08-01 09:12:59 51°22.752 3°9.465 66.2 0.7 39.9 13.3
2002-08-01 09:13:04 51°22.752 3°9.466 67.7 0.7 42.7 13.3
2002-08-01 09:13:09 51°22.753 3°9.467 69 0.7 46.7 13.4
2002-08-01 09:13:15 51°22.753 3°9.468 70.3 0.6 48.3 13.3
2002-08-01 09:13:20 51°22.754 3°9.469 71.8 0.6 51.6 13.3
2002-08-01 09:13:24 51°22.754 3°9.47 73.5 0.6 52.2 13.4
2002-08-01 09:13:29 51°22.755 3°9.471 75 0.6 54.5 13.4
2002-08-01 09:13:34 51°22.755 3°9.472 76.3 0.6 57 13.4
2002-08-01 09:13:39 51°22.756 3°9.473 78 0.6 58.6 13.4
2002-08-01 09:13:44 51°22.756 3°9.474 79.5 0.6 60.5 13.4
2002-08-01 09:13:49 51°22.756 3°9.476 81 0.6 60.3 13.4
2002-08-01 09:13:55 51°22.757 3°9.477 82.3 0.6 60 13.4
2002-08-01 09:13:59 51°22.757 3°9.478 83.5 0.6 65.4 13.4
2002-08-01 09:14:04 51°22.757 3°9.479 85 0.6 66.3 13.4
2002-08-01 09:14:09 51°22.757 3°9.48 86.5 0.6 70.9 13.4
2002-08-01 09:14:14 51°22.758 3°9.481 87.8 0.6 73.8 13.4
2002-08-01 09:14:19 51°22.758 3°9.483 89 0.5 78.5 13.4
2002-08-01 09:14:24 51°22.758 3°9.484 90.3 0.5 82.2 13.4
2002-08-01 09:14:29 51°22.758 3°9.485 91.7 0.5 83.3 13.4
2002-08-01 09:14:34 51°22.758 3°9.486 93 0.5 84.1 13.4
2002-08-01 09:14:39 51°22.758 3°9.487 94.3 0.5 87.4 13.4
2002-08-01 09:14:44 51°22.758 3°9.488 95.5 0.5 89.7 13.4
2002-08-01 09:14:49 51°22.758 3°9.489 96.7 0.5 96 13.4
2002-08-01 09:14:53 51°22.758 3°9.49 98.2 0.5 102.9 13.4
2002-08-01 09:14:59 51°22.757 3°9.492 99.7 0.5 101.7 13.5
2002-08-01 09:15:04 51°22.757 3°9.493 101 0.5 104.9 13.4
2002-08-01 09:15:09 51°22.757 3°9.494 102.5 0.5 111.4 13.4
2002-08-01 09:15:14 51°22.757 3°9.495 104 0.5 113.6 13.4
2002-08-01 09:15:19 51°22.756 3°9.496 105.5 0.5 114.5 13.4
2002-08-01 09:15:24 51°22.756 3°9.497 107.2 0.5 114.6 13.4
2002-08-01 09:15:29 51°22.755 3°9.498 108.7 0.5 115.2 13.4
2002-08-01 09:15:33 51°22.755 3°9.499 110.5 0.6 123.2 13.4
2002-08-01 09:15:39 51°22.754 3°9.5 112.2 0.6 129.8 13.4
2002-08-01 09:15:44 51°22.754 3°9.501 113.7 0.6 135.6 13.4
2002-08-01 09:15:49 51°22.753 3°9.502 115.3 0.6 136.5 13.4
2002-08-01 09:15:55 51°22.752 3°9.503 116.8 0.6 139.7 13.4
2002-08-01 09:15:59 51°22.752 3°9.504 118.5 0.6 140.6 13.4
2002-08-01 09:16:05 51°22.751 3°9.505 120 0.6 144.2 13.4
2002-08-01 09:16:09 51°22.75 3°9.505 121.7 0.6 147.8 13.4
2002-08-01 09:16:13 51°22.75 3°9.506 123.3 0.6 150.8 13.4
2002-08-01 09:16:19 51°22.749 3°9.507 124.8 0.7 152.3 13.4
2002-08-01 09:16:24 51°22.748 3°9.507 126.3 0.7 154.3 13.4
2002-08-01 09:16:29 51°22.747 3°9.508 127.8 0.7 157 13.4
2002-08-01 09:16:34 51°22.746 3°9.508 129.3 0.7 158.3 13.4
2002-08-01 09:16:39 51°22.745 3°9.509 130.8 0.7 160.7 13.5
2002-08-01 09:16:44 51°22.744 3°9.509 132.7 0.7 162.7 13.4